createdAt,value
2018-07-25T06:09:46.285Z,6.62
2018-07-25T06:12:17.282Z,7.62
2018-07-25T06:14:47.970Z,6.83
2018-07-25T06:17:18.762Z,7.12
2018-07-25T06:19:49.016Z,6.53
2018-07-25T06:22:20.001Z,6.08
2018-07-25T06:24:50.249Z,6.63
2018-07-25T06:27:20.656Z,6.43
2018-07-25T06:29:51.460Z,6.40
2018-07-25T06:32:21.657Z,6.63
2018-07-25T06:34:51.949Z,6.20
2018-07-25T06:37:22.405Z,7.03
2018-07-25T06:39:52.959Z,6.50
2018-07-25T06:42:24.477Z,6.30
2018-07-25T06:44:57.506Z,6.63
2018-07-25T06:47:31.149Z,6.33
2018-07-25T06:50:03.178Z,6.53
2018-07-25T06:52:35.531Z,6.50
2018-07-25T06:55:06.648Z,6.23
2018-07-25T06:57:38.194Z,5.67
2018-07-25T07:00:14.860Z,5.70
2018-07-25T07:02:50.969Z,6.10
2018-07-25T07:05:22.594Z,6.60
2018-07-25T07:07:53.927Z,5.87
2018-07-25T07:10:27.192Z,5.60
2018-07-25T07:13:00.115Z,6.40
2018-07-25T07:15:31.048Z,5.93
2018-07-25T07:18:02.451Z,5.47
2018-07-25T07:20:33.847Z,6.07
2018-07-25T07:23:06.223Z,5.67
2018-07-25T07:25:36.614Z,5.80
2018-07-25T07:28:07.337Z,5.47
2018-07-25T07:30:38.139Z,5.80
2018-07-25T07:33:09.652Z,5.97
2018-07-25T07:35:40.928Z,6.30
2018-07-25T07:38:11.800Z,5.73
2018-07-25T07:40:42.110Z,5.90
2018-07-25T07:43:13.121Z,5.73
2018-07-25T07:45:43.637Z,6.60
2018-07-25T07:48:18.481Z,5.83
2018-07-25T07:50:50.930Z,5.93
2018-07-25T07:53:22.029Z,5.70
2018-07-25T07:55:52.405Z,5.70
2018-07-25T07:58:23.035Z,5.60
2018-07-25T08:00:55.445Z,5.73
2018-07-25T08:03:26.109Z,5.70
2018-07-25T08:05:57.117Z,6.17
2018-07-25T08:08:27.708Z,6.10
2018-07-25T08:10:58.014Z,6.23
2018-07-25T08:13:28.511Z,6.27
2018-07-25T08:15:58.740Z,6.10
2018-07-25T08:18:29.532Z,6.77
2018-07-25T08:21:01.333Z,6.40
2018-07-25T08:23:32.536Z,5.90
2018-07-25T08:26:03.688Z,6.67
2018-07-25T08:28:34.309Z,6.63
2018-07-25T08:31:04.834Z,6.80
2018-07-25T08:33:35.470Z,6.10
2018-07-25T08:36:08.156Z,6.70
2018-07-25T08:38:41.535Z,6.60
2018-07-25T08:41:12.632Z,6.90
2018-07-25T08:43:43.487Z,6.43
2018-07-25T08:46:14.588Z,6.73
2018-07-25T08:48:46.117Z,6.13
2018-07-25T08:51:18.410Z,6.30
2018-07-25T08:53:49.177Z,6.47
2018-07-25T08:56:19.449Z,6.57
2018-07-25T08:58:51.441Z,6.60
2018-07-25T09:01:22.775Z,6.73
2018-07-25T09:03:54.032Z,6.40
2018-07-25T09:06:24.627Z,6.40
2018-07-25T09:08:55.062Z,6.33
2018-07-25T09:11:29.729Z,6.30
2018-07-25T09:14:01.750Z,6.33
2018-07-25T09:16:32.199Z,5.77
2018-07-25T09:19:03.609Z,5.73
2018-07-25T09:21:34.367Z,6.47
2018-07-25T09:24:04.803Z,6.13
2018-07-25T09:26:36.362Z,6.03
2018-07-25T09:29:06.608Z,6.50
2018-07-25T09:31:37.100Z,6.83
2018-07-25T09:34:08.043Z,6.43
2018-07-25T09:36:39.763Z,6.87
2018-07-25T09:39:13.525Z,7.27
2018-07-25T09:41:45.436Z,6.77
2018-07-25T09:44:17.012Z,6.60
2018-07-25T09:46:47.827Z,6.90
2018-07-25T09:49:18.400Z,6.50
2018-07-25T09:51:50.968Z,6.80
2018-07-25T09:54:21.775Z,6.07
2018-07-25T09:56:53.628Z,6.00
2018-07-25T09:59:24.001Z,6.40
2018-07-25T10:01:55.071Z,6.63
2018-07-25T10:04:25.513Z,6.20
2018-07-25T10:06:56.455Z,6.30
2018-07-25T10:09:27.140Z,5.97
2018-07-25T10:11:57.823Z,6.57
2018-07-25T10:14:29.140Z,5.90
2018-07-25T10:17:00.038Z,6.40
2018-07-25T10:19:30.800Z,5.60
2018-07-25T10:22:03.311Z,6.00
2018-07-25T10:24:34.205Z,6.73
2018-07-25T10:27:05.036Z,6.00
2018-07-25T10:29:36.040Z,5.60
2018-07-25T10:32:07.243Z,6.30
2018-07-25T10:34:37.639Z,6.47
2018-07-25T10:37:08.582Z,6.07
2018-07-25T10:39:39.550Z,6.90
2018-07-25T10:42:10.406Z,6.53
2018-07-25T10:44:40.801Z,6.93
2018-07-25T10:47:11.595Z,6.70
2018-07-25T10:49:42.691Z,6.37
2018-07-25T10:52:14.237Z,7.20
2018-07-25T10:54:45.759Z,7.30
2018-07-25T10:57:16.454Z,7.27
2018-07-25T10:59:47.172Z,7.30
2018-07-25T11:02:18.428Z,7.43
2018-07-25T11:04:49.219Z,6.97
2018-07-25T11:07:19.767Z,7.37
2018-07-25T11:09:50.580Z,7.23
2018-07-25T11:12:21.588Z,7.17
2018-07-25T11:14:52.102Z,7.50
2018-07-25T11:17:23.213Z,7.23
2018-07-25T11:19:54.017Z,7.57
2018-07-25T11:22:26.639Z,6.83
2018-07-25T11:24:57.577Z,7.20
2018-07-25T11:27:28.411Z,6.97
2018-07-25T11:30:00.356Z,7.57
2018-07-25T11:32:31.151Z,7.33
2018-07-25T11:35:02.888Z,7.23
2018-07-25T11:40:35.850Z,7.20
2018-07-25T11:43:07.658Z,6.77
2018-07-25T11:48:42.857Z,7.65
2018-07-25T11:51:13.873Z,6.53
2018-07-25T11:53:47.818Z,6.90
2018-07-25T11:56:18.202Z,6.70
2018-07-25T11:58:48.611Z,6.57
2018-07-25T12:07:54.784Z,6.90
2018-07-25T12:10:25.546Z,6.77
2018-07-25T12:12:55.976Z,7.43
2018-07-25T12:15:26.407Z,7.27
2018-07-25T12:17:58.026Z,6.53
2018-07-25T12:20:28.505Z,7.00
2018-07-25T12:22:59.198Z,6.40
2018-07-25T12:25:29.569Z,6.70
2018-07-25T12:28:00.092Z,6.40
2018-07-25T12:30:31.106Z,6.77
2018-07-25T12:33:01.641Z,6.63
2018-07-25T12:35:31.897Z,5.90
2018-07-25T12:38:02.797Z,6.50
2018-07-25T12:40:33.233Z,6.13
2018-07-25T12:43:03.619Z,6.10
2018-07-25T12:45:34.002Z,6.13
2018-07-25T12:48:05.128Z,6.03
2018-07-25T12:50:36.829Z,6.70
2018-07-25T12:53:07.710Z,6.10
2018-07-25T12:55:38.228Z,6.37
2018-07-25T12:58:09.072Z,6.73
2018-07-25T13:00:39.496Z,6.87
2018-07-25T13:03:10.080Z,6.50
2018-07-25T13:05:40.865Z,5.70
2018-07-25T13:08:11.676Z,5.93
2018-07-25T13:10:42.201Z,5.63
2018-07-25T13:13:12.993Z,5.97
2018-07-25T13:15:44.051Z,6.10
2018-07-25T13:18:15.179Z,6.53
2018-07-25T13:20:45.599Z,5.70
2018-07-25T13:23:15.987Z,6.10
2018-07-25T13:25:47.112Z,5.90
2018-07-25T13:28:17.778Z,5.93
2018-07-25T13:31:12.944Z,5.77
2018-07-25T13:33:46.540Z,6.40
2018-07-25T13:39:17.736Z,5.90
2018-07-25T13:51:09.316Z,5.42
2018-07-25T13:53:40.162Z,4.60
2018-07-25T13:56:11.944Z,4.67
2018-07-25T13:58:43.148Z,4.77
2018-07-25T14:01:15.572Z,4.53
2018-07-25T14:03:46.168Z,4.80
2018-07-25T14:06:19.332Z,4.80
2018-07-25T14:08:49.879Z,5.37
2018-07-25T14:11:20.953Z,4.50
2018-07-25T14:13:51.822Z,5.50
2018-07-25T14:16:23.202Z,5.07
2018-07-25T14:18:53.804Z,5.17
2018-07-25T14:21:25.401Z,4.80
2018-07-25T14:23:56.571Z,4.60
2018-07-25T14:26:28.765Z,4.73
2018-07-25T14:28:59.425Z,4.87
2018-07-25T14:31:29.849Z,4.93
2018-07-25T14:34:00.971Z,4.83
2018-07-25T14:36:31.932Z,4.77
2018-07-25T14:39:07.119Z,4.77
2018-07-25T14:41:40.237Z,4.67
2018-07-25T14:44:12.482Z,4.93
2018-07-25T14:46:42.872Z,5.73
2018-07-25T14:49:14.199Z,5.90
2018-07-25T14:51:46.853Z,5.23
2018-07-25T14:57:24.871Z,6.17
2018-07-25T14:59:55.628Z,6.40
2018-07-25T15:08:39.512Z,6.40
2018-07-25T15:11:11.334Z,5.80
2018-07-25T15:13:42.329Z,6.30
2018-07-25T15:16:13.846Z,6.17
2018-07-25T15:18:44.928Z,6.47
2018-07-25T15:21:16.290Z,5.73
2018-07-25T15:23:57.112Z,6.00
2018-07-25T15:26:28.436Z,6.07
2018-07-25T15:28:59.839Z,6.60
2018-07-25T15:31:30.401Z,5.70
2018-07-25T15:34:01.485Z,6.00
2018-07-25T15:36:45.727Z,5.53
2018-07-25T15:39:21.149Z,5.60
2018-07-25T15:41:52.796Z,5.43
2018-07-25T15:44:24.481Z,5.57
2018-07-25T15:46:56.313Z,6.10
2018-07-25T15:49:26.954Z,5.47
2018-07-25T15:51:57.814Z,5.77
2018-07-25T15:54:28.376Z,5.80
2018-07-25T15:56:59.317Z,5.80
2018-07-25T15:59:31.630Z,5.83
2018-07-25T16:02:02.305Z,5.67
2018-07-25T16:04:32.995Z,5.40
2018-07-25T16:07:03.553Z,5.60
2018-07-25T16:09:34.163Z,5.70
2018-07-25T16:12:04.948Z,5.50
2018-07-25T16:14:35.470Z,6.07
2018-07-25T16:17:06.532Z,5.63
2018-07-25T16:19:37.878Z,5.80
2018-07-25T16:22:08.819Z,5.93
2018-07-25T16:24:39.242Z,5.80
2018-07-25T16:27:10.251Z,5.60
2018-07-25T16:29:41.026Z,5.57
2018-07-25T16:32:11.364Z,5.77
2018-07-25T16:34:42.276Z,5.73
2018-07-25T16:37:14.093Z,5.90
2018-07-25T16:39:46.381Z,5.27
2018-07-25T16:42:16.922Z,5.80
2018-07-25T16:44:47.735Z,5.70
2018-07-25T16:47:18.188Z,5.53
2018-07-25T16:49:48.641Z,5.50
2018-07-25T16:52:19.354Z,5.67
2018-07-25T16:54:50.119Z,5.53
2018-07-25T16:57:20.954Z,5.40
2018-07-25T16:59:52.557Z,5.53
2018-07-25T17:02:23.251Z,5.37
2018-07-25T17:04:54.704Z,5.80
2018-07-25T17:07:26.283Z,5.60
2018-07-25T17:09:56.955Z,5.80
2018-07-25T17:12:28.292Z,5.77
2018-07-25T17:14:59.072Z,5.50
2018-07-25T17:17:30.045Z,5.00
2018-07-25T17:20:01.063Z,5.20
2018-07-25T17:22:32.495Z,5.13
2018-07-25T17:25:03.942Z,5.97
2018-07-25T17:27:37.346Z,5.10
2018-07-25T17:30:09.118Z,4.83
2018-07-25T17:32:40.277Z,5.27
2018-07-25T17:35:11.257Z,5.23
2018-07-25T17:37:42.133Z,4.97
2018-07-25T17:40:13.383Z,4.97
2018-07-25T17:42:46.559Z,5.23
2018-07-25T17:45:17.313Z,4.97
2018-07-25T17:47:48.203Z,4.90
2018-07-25T17:50:20.690Z,5.57
2018-07-25T17:52:51.356Z,7.27
2018-07-25T17:55:23.211Z,4.60
2018-07-25T17:58:00.777Z,4.87
2018-07-25T18:07:53.776Z,4.75
2018-07-25T18:46:55.386Z,4.05
2018-07-25T18:52:47.853Z,4.78
2018-07-25T18:58:47.943Z,4.97
2018-07-25T19:04:53.547Z,5.00
2018-07-25T19:10:37.297Z,5.35
2018-07-25T19:26:30.655Z,4.78
2018-07-25T19:29:08.668Z,7.03
